Time;durP1;ratioP1;P1;durP2;ratioP2;P2;SDS_P1;SDS_P2;PMS_P1;PMS_P2;Temp;Humidity;BMP_temperature;BMP_pressure;BME280_temperature;BME280_humidity;BME280_pressure;Samples;Min_cycle;Max_cycle;Signal;HPM_P1;HPM_P2
2022/07/11 00:11:56;;;;;;;;;;;;;;;13.88;78.55;99168.38;4136980;83;20194;-85
2022/07/11 00:24:53;;;;;;;;;;;;;;;13.90;78.93;99167.41;4273400;82;20285;-85
2022/07/11 00:38:13;;;;;;;;;;;;;;;13.85;79.11;99163.66;4261063;81;20145;-84
2022/07/11 00:50:48;;;;;;;;;;;;;;;13.80;79.34;99168.17;4164886;84;20186;-84
2022/07/11 01:43:09;;;;;;;;;;;;;;;13.79;80.10;99174.06;4257369;80;20231;-85
2022/07/11 01:55:58;;;;;;;;;;;;;;;13.76;80.21;99167.39;4246077;81;20144;-84
2022/07/11 02:15:39;;;;;;;;;;;;;;;13.69;80.85;99166.00;4229688;82;20114;-85
2022/07/11 02:41:25;;;;;;;;;;;;;;;13.70;81.33;99164.05;4252107;81;20434;-85
2022/07/11 03:01:02;;;;;;;;;;;;;;;13.66;81.95;99171.48;4245596;81;20568;-85
2022/07/11 03:13:52;;;;;;;;;;;;;;;13.70;82.39;99168.94;4189468;82;20438;-85
2022/07/11 03:20:07;;;;;;;;;;;;;;;13.69;82.20;99167.95;4273256;81;20107;-86
2022/07/11 03:26:38;;;;;;;;;;;;;;;13.68;82.30;99174.06;4263542;81;20115;-85
2022/07/11 03:33:20;;;;;;;;;;;;;;;13.70;82.60;99171.69;4120745;85;20290;-85
2022/07/11 03:39:49;;;;;;;;;;;;;;;13.66;82.32;99176.98;3992412;86;20149;-85
2022/07/11 03:52:25;;;;;;;;;;;;;;;13.64;82.87;99177.99;3869170;88;20140;-84
2022/07/11 08:06:48;;;;;;;3.87;1.45;;;;;;;19.35;73.48;99186.23;4431240;77;21217;-85
2022/07/11 08:13:05;;;;;;;3.75;1.47;;;;;;;19.38;72.65;99179.81;4428523;77;21113;-84
2022/07/11 08:32:40;;;;;;;6.37;1.95;;;;;;;18.55;71.95;99170.54;4424040;77;21086;-84
2022/07/11 08:38:46;;;;;;;4.10;1.32;;;;;;;17.81;71.15;99180.05;4405137;77;21034;-85
2022/07/11 08:44:52;;;;;;;5.78;1.75;;;;;;;17.31;72.03;99167.28;4410758;78;20972;-83
2022/07/11 08:57:28;;;;;;;4.67;1.30;;;;;;;18.02;71.86;99147.88;4431962;77;21028;-84
2022/07/11 09:03:52;;;;;;;5.87;1.42;;;;;;;18.33;71.50;99127.16;4452700;77;21461;-84
2022/07/11 09:10:22;;;;;;;4.80;1.60;;;;;;;18.66;71.81;99126.17;4430279;77;21987;-84
2022/07/11 09:16:48;;;;;;;;;;;;;;;19.06;70.54;99122.77;4461713;77;21031;-84
2022/07/11 09:36:05;;;;;;;5.25;1.30;;;;;;;18.49;68.42;99149.47;4421957;77;21023;-84
2022/07/11 09:42:20;;;;;;;4.80;1.50;;;;;;;18.09;68.77;99140.03;4424523;77;20969;-84
2022/07/11 09:55:08;;;;;;;8.40;1.80;;;;;;;17.93;68.23;99135.77;4285209;81;22367;-84
2022/07/11 10:01:26;;;;;;;4.50;1.50;;;;;;;18.12;68.24;99132.30;4363913;80;21003;-85
2022/07/11 10:08:17;;;;;;;6.17;1.72;;;;;;;19.14;68.21;99128.98;4362587;80;21455;-84
2022/07/11 10:14:41;;;;;;;5.55;1.45;;;;;;;19.69;66.44;99123.38;4430047;77;21042;-84
2022/07/11 10:21:00;;;;;;;5.97;0.98;;;;;;;20.25;66.33;99122.64;4427730;77;21137;-85
2022/07/11 10:27:37;;;;;;;5.80;1.27;;;;;;;20.47;64.03;99117.47;4290112;80;21598;-84
2022/07/11 10:34:19;;;;;;;5.05;1.30;;;;;;;21.03;64.87;99108.95;4293060;80;21081;-85
2022/07/11 10:40:54;;;;;;;5.62;1.02;;;;;;;21.81;63.65;99109.39;4420090;77;21015;-85
2022/07/11 10:47:24;;;;;;;3.83;1.20;;;;;;;22.27;62.49;99106.63;4371992;80;21038;-84
2022/07/11 10:53:49;;;;;;;2.90;1.10;;;;;;;22.04;61.95;99099.26;4467050;77;21386;-84
2022/07/11 11:00:30;;;;;;;6.60;1.45;;;;;;;21.28;61.49;99110.39;4484000;77;21565;-84
2022/07/11 11:06:53;;;;;;;6.83;1.67;;;;;;;20.23;61.28;99122.45;4429673;77;21461;-85
2022/07/11 11:13:10;;;;;;;9.55;1.47;;;;;;;18.23;63.43;99168.88;4433524;77;21558;-86
2022/07/11 11:19:52;;;;;;;9.03;1.60;;;;;;;16.40;65.66;99158.03;4429966;77;21991;-83
2022/07/11 11:25:53;;;;;;;6.20;2.00;;;;;;;15.78;67.00;99203.71;4388733;78;21786;-85
2022/07/11 11:31:57;;;;;;;3.92;1.45;;;;;;;15.29;69.33;99250.83;4413248;77;21605;-85
2022/07/11 11:38:00;;;;;;;4.10;1.32;;;;;;;14.67;70.21;99247.85;4454558;77;21566;-85
2022/07/11 11:44:03;;;;;;;2.42;1.10;;;;;;;14.36;72.22;99239.61;4408772;77;21077;-84
2022/07/11 11:50:09;;;;;;;2.90;1.05;;;;;;;14.44;73.66;99230.16;4429746;77;21971;-86
2022/07/11 11:56:20;;;;;;;1.60;0.72;;;;;;;14.54;74.11;99230.73;4399192;77;21027;-83
2022/07/11 12:02:29;;;;;;;3.05;1.17;;;;;;;14.36;74.51;99223.84;4293214;80;21760;-84
2022/07/11 12:08:30;;;;;;;4.65;1.07;;;;;;;14.29;76.19;99240.97;4377380;77;29096;-85
2022/07/11 12:14:36;;;;;;;6.10;1.27;;;;;;;14.59;76.75;99243.53;4296886;80;21047;-84
2022/07/11 12:20:42;;;;;;;2.37;0.80;;;;;;;14.85;77.18;99247.22;4265070;80;21359;-84
2022/07/11 12:26:44;;;;;;;6.08;1.40;;;;;;;15.35;77.62;99247.84;4289014;80;21509;-84
2022/07/11 12:33:06;;;;;;;4.33;0.93;;;;;;;15.56;77.54;99251.34;4279257;80;21079;-83
2022/07/11 12:39:08;;;;;;;2.98;1.10;;;;;;;15.91;78.12;99228.88;4301326;79;21114;-84
2022/07/11 12:45:11;;;;;;;2.60;0.85;;;;;;;16.04;79.37;99219.70;4289685;80;21047;-83
2022/07/11 12:51:27;;;;;;;3.22;0.85;;;;;;;16.24;79.67;99206.14;4302872;80;21615;-84
2022/07/11 12:57:28;;;;;;;2.92;1.02;;;;;;;;;;4287619;80;21053;-83
2022/07/11 13:03:35;;;;;;;3.08;1.10;;;;;;;16.17;80.08;99207.56;4299948;80;21081;-83
2022/07/11 13:09:37;;;;;;;3.27;1.10;;;;;;;16.09;79.09;99200.52;4277693;80;21139;-84
2022/07/11 13:15:38;;;;;;;3.40;1.55;;;;;;;16.12;80.06;99205.23;4293075;80;22154;-84
2022/07/11 13:21:41;;;;;;;3.70;1.30;;;;;;;16.16;80.06;99213.67;4284989;81;21057;-84
2022/07/11 13:27:45;;;;;;;3.50;1.12;;;;;;;16.03;80.07;99225.03;4277245;80;21066;-84
2022/07/11 13:33:47;;;;;;;18.30;2.75;;;;;;;15.85;80.57;99221.59;4287550;80;21559;-84
2022/07/11 13:39:53;;;;;;;2.12;0.90;;;;;;;15.86;80.65;99220.42;4276881;80;21090;-84
2022/07/11 13:45:54;;;;;;;2.27;0.63;;;;;;;15.89;81.20;99214.09;4276196;80;21079;-84
2022/07/11 13:51:59;;;;;;;1.52;0.70;;;;;;;16.21;81.28;99209.72;4276585;80;20996;-84
2022/07/11 13:58:29;;;;;;;1.85;0.57;;;;;;;16.11;80.06;99210.58;4295257;80;21035;-85
2022/07/11 14:04:47;;;;;;;1.42;0.65;;;;;;;16.10;80.82;99209.78;4303079;80;21028;-83
2022/07/11 14:10:51;;;;;;;2.25;0.53;;;;;;;16.21;80.26;99215.24;4302764;80;21522;-84
2022/07/11 14:17:03;;;;;;;1.67;0.47;;;;;;;16.34;80.97;99217.09;4275120;80;21044;-84
2022/07/11 14:23:17;;;;;;;0.90;0.30;;;;;;;16.50;80.92;99228.44;4257248;80;21094;-84
2022/07/11 14:29:19;;;;;;;1.65;0.40;;;;;;;16.44;80.22;99232.84;4291071;80;21021;-84
2022/07/11 14:55:19;;;;;;;0.55;0.40;;;;;;;16.03;78.94;99231.14;4273823;80;21052;-85
2022/07/11 15:01:40;;;;;;;1.00;0.20;;;;;;;15.96;78.89;99235.34;4194263;83;21625;-84
2022/07/11 15:40:44;;;;;;;1.10;0.60;;;;;;;16.06;78.61;99249.08;4282403;80;21570;-84
2022/07/11 15:46:52;;;;;;;2.77;0.80;;;;;;;15.95;78.75;99255.27;4298470;80;21545;-83
2022/07/11 15:53:01;;;;;;;2.37;0.47;;;;;;;15.83;78.91;99262.64;4258425;80;21542;-86
2022/07/11 16:06:21;;;;;;;0.60;0.30;;;;;;;16.04;79.27;99261.70;4284295;80;21113;-86
2022/07/11 16:18:57;;;;;;;2.58;0.68;;;;;;;16.30;78.33;99277.71;4301472;80;22245;-86
2022/07/11 16:25:19;;;;;;;2.27;0.85;;;;;;;16.35;78.14;99274.52;4282729;80;21121;-84
2022/07/11 16:31:24;;;;;;;4.83;1.60;;;;;;;16.33;77.94;99269.99;4254307;80;21109;-85
2022/07/11 16:38:12;;;;;;;2.72;0.60;;;;;;;16.33;78.52;99254.80;4280815;80;21502;-85
2022/07/11 16:44:23;;;;;;;1.20;0.50;;;;;;;16.42;78.58;99253.73;4216582;80;20985;-84
2022/07/11 17:04:45;;;;;;;2.40;0.75;;;;;;;16.19;77.21;99241.89;4258467;81;21005;-84
2022/07/11 17:31:06;;;;;;;3.55;0.85;;;;;;;15.74;77.10;99271.93;4262438;80;21055;-86
2022/07/11 17:37:32;;;;;;;7.50;0.93;;;;;;;15.66;77.30;99273.95;4274266;80;21057;-85
2022/07/11 17:57:39;;;;;;;;;;;;;;;15.52;78.48;99279.53;4054992;84;21087;-84
2022/07/11 18:04:05;;;;;;;2.60;0.90;;;;;;;15.39;79.18;99290.80;4296857;80;20136;-85
2022/07/11 18:10:08;;;;;;;4.90;1.10;;;;;;;15.27;79.46;99302.25;4265574;80;21025;-85
2022/07/11 18:16:09;;;;;;;5.30;0.80;;;;;;;14.77;79.27;99333.07;4289322;80;21060;-87
2022/07/11 18:22:11;;;;;;;2.80;0.60;;;;;;;13.73;80.20;99320.84;4173229;82;21012;-87
2022/07/11 18:28:12;;;;;;;2.58;0.60;;;;;;;13.27;81.07;99286.08;4178576;83;21078;-85
2022/07/11 18:34:13;;;;;;;6.10;0.72;;;;;;;13.06;82.80;99327.20;4031956;84;9999655;-84
2022/07/11 18:46:38;;;;;;;3.25;1.17;;;;;;;12.80;83.18;99320.50;4286439;80;21018;-83
2022/07/11 18:52:39;;;;;;;2.10;1.22;;;;;;;12.70;83.95;99304.74;4268371;80;21081;-83
2022/07/11 18:58:42;;;;;;;3.70;1.25;;;;;;;12.78;85.32;99317.36;4285074;80;21007;-83
2022/07/11 19:04:44;;;;;;;2.92;1.50;;;;;;;12.83;85.35;99323.84;4295063;80;21060;-82
2022/07/11 19:10:45;;;;;;;3.60;1.30;;;;;;;12.89;86.00;99332.73;4146520;80;10000087;-83
2022/07/11 19:16:47;;;;;;;4.17;1.82;;;;;;;12.87;86.84;99342.54;4285865;80;21063;-82
2022/07/11 19:22:48;;;;;;;7.35;1.92;;;;;;;12.89;87.26;99347.84;4289071;80;21056;-83
2022/07/11 19:28:49;;;;;;;6.17;2.83;;;;;;;12.88;87.46;99350.98;4168158;83;21536;-83
2022/07/11 19:34:51;;;;;;;6.40;2.52;;;;;;;12.85;87.81;99354.48;4157097;83;20997;-82
2022/07/11 19:40:53;;;;;;;3.65;2.10;;;;;;;12.80;88.25;99357.01;4143065;83;21066;-82
2022/07/11 19:46:58;;;;;;;2.90;1.37;;;;;;;12.85;88.90;99365.48;4283904;80;21038;-82
2022/07/11 19:52:59;;;;;;;5.90;1.57;;;;;;;12.84;89.13;99362.53;4282258;80;21166;-82
2022/07/11 19:59:01;;;;;;;3.22;0.95;;;;;;;12.83;89.35;99362.31;4247516;80;21118;-83
2022/07/11 20:05:03;;;;;;;2.33;1.20;;;;;;;12.80;89.32;99358.95;4256071;81;21012;-82
2022/07/11 20:11:06;;;;;;;3.62;1.70;;;;;;;12.71;89.61;99360.67;4281148;80;21009;-82
2022/07/11 20:17:08;;;;;;;5.20;2.22;;;;;;;12.68;89.69;99355.94;4215873;83;21056;-82
2022/07/11 20:23:09;;;;;;;3.67;2.45;;;;;;;12.60;90.06;99356.47;4215853;83;21024;-83
2022/07/11 20:29:11;;;;;;;5.45;2.55;;;;;;;12.48;90.13;99348.50;4216799;83;21030;-83
2022/07/11 20:35:13;;;;;;;2.17;1.10;;;;;;;12.46;90.74;99349.48;4298102;80;21076;-82
2022/07/11 20:41:15;;;;;;;3.05;1.27;;;;;;;12.44;90.48;99344.94;4269715;81;21019;-83
2022/07/11 20:47:16;;;;;;;2.25;1.00;;;;;;;12.30;90.76;99344.01;4285173;80;21102;-83
2022/07/11 20:53:18;;;;;;;1.60;1.12;;;;;;;12.24;90.90;99339.46;4274177;80;21017;-81
2022/07/11 20:59:20;;;;;;;1.90;1.37;;;;;;;12.22;91.23;99343.73;4280872;80;20980;-82
2022/07/11 21:05:23;;;;;;;2.83;1.10;;;;;;;12.16;91.33;99341.92;4301891;80;22312;-82
2022/07/11 21:11:46;;;;;;;3.70;1.30;;;;;;;12.21;92.08;99350.40;4281809;80;21082;-82
2022/07/11 21:17:37;;;;;;;2.47;1.25;;;;;;;12.21;92.04;99358.06;4281446;80;21100;-81
2022/07/11 21:23:38;;;;;;;5.00;1.05;;;;;;;12.16;92.37;99368.56;4271349;80;21006;-82
2022/07/11 21:29:40;;;;;;;1.95;0.90;;;;;;;12.07;92.36;99358.48;4295657;80;21059;-82
2022/07/11 21:35:41;;;;;;;1.60;1.15;;;;;;;12.03;92.44;99363.92;4288492;80;21015;-82
2022/07/11 21:41:44;;;;;;;2.17;0.95;;;;;;;12.00;93.01;99370.16;4254785;80;21034;-82
2022/07/11 21:47:46;;;;;;;2.27;1.20;;;;;;;12.10;93.77;99362.64;4293022;79;21054;-82
2022/07/11 21:53:47;;;;;;;2.95;1.60;;;;;;;12.16;93.98;99366.63;4280049;80;21037;-82
2022/07/11 21:59:49;;;;;;;2.42;1.42;;;;;;;12.14;93.95;99364.83;4273233;80;21010;-81
2022/07/11 22:05:50;;;;;;;3.77;1.52;;;;;;;12.15;93.57;99361.52;4277116;80;21549;-82
2022/07/11 22:11:51;;;;;;;6.87;1.55;;;;;;;12.11;94.40;99364.78;4271039;80;21054;-83
2022/07/11 22:17:52;;;;;;;2.15;1.00;;;;;;;12.05;94.19;99354.74;4219439;83;21159;-81
2022/07/11 22:23:54;;;;;;;1.90;1.15;;;;;;;11.92;94.28;99372.62;4164983;83;21015;-83
2022/07/11 22:29:55;;;;;;;2.50;1.32;;;;;;;11.90;94.41;99370.05;4141245;83;21128;-81
2022/07/11 22:35:56;;;;;;;3.30;1.10;;;;;;;11.85;94.65;99378.61;4151900;83;21507;-84
2022/07/11 22:41:59;;;;;;;2.42;1.22;;;;;;;11.80;95.24;99382.47;4276429;80;21055;-81
2022/07/11 22:48:00;;;;;;;4.08;1.40;;;;;;;11.79;94.76;99380.88;4291184;80;21029;-81
2022/07/11 22:54:01;;;;;;;3.40;1.52;;;;;;;11.75;94.90;99373.77;4292773;80;21026;-81
2022/07/11 23:00:05;;;;;;;2.75;2.10;;;;;;;11.72;95.32;99375.31;4272270;80;21000;-82
2022/07/11 23:06:08;;;;;;;4.55;1.70;;;;;;;11.72;95.70;99373.95;4287720;79;21604;-82
2022/07/11 23:12:09;;;;;;;5.87;1.80;;;;;;;11.73;95.77;99370.03;4274130;80;21054;-82
2022/07/11 23:18:11;;;;;;;4.37;1.70;;;;;;;11.78;96.13;99371.08;4273339;80;21058;-82
2022/07/11 23:24:12;;;;;;;4.50;2.50;;;;;;;11.84;96.36;99376.44;4179699;83;21027;-81
2022/07/11 23:30:14;;;;;;;2.70;1.30;;;;;;;11.86;96.06;99369.20;4286832;80;22097;-81
2022/07/11 23:36:15;;;;;;;2.77;1.85;;;;;;;11.89;96.67;99369.82;4258342;80;21563;-82
2022/07/11 23:42:17;;;;;;;3.98;1.90;;;;;;;11.90;96.57;99363.96;4292824;80;21007;-81
2022/07/11 23:48:19;;;;;;;6.95;2.40;;;;;;;11.85;96.69;99361.58;4274737;79;21011;-82
2022/07/11 23:54:21;;;;;;;3.37;2.52;;;;;;;11.83;97.19;99360.35;4283005;80;21014;-82
